sensor_id;sensor_type;location;lat;lon;timestamp;P1;durP1;ratioP1;P2;durP2;ratioP2
46491;SDS011;32206;51.446;6.792;2023-07-20T00:01:08;3.95;;;2.92;;
46491;SDS011;32206;51.446;6.792;2023-07-20T00:03:33;3.08;;;2.53;;
46491;SDS011;32206;51.446;6.792;2023-07-20T00:05:59;7.13;;;3.05;;
46491;SDS011;32206;51.446;6.792;2023-07-20T00:08:25;3.90;;;3.00;;
46491;SDS011;32206;51.446;6.792;2023-07-20T00:10:50;3.65;;;2.65;;
46491;SDS011;32206;51.446;6.792;2023-07-20T00:13:16;6.78;;;2.55;;
46491;SDS011;32206;51.446;6.792;2023-07-20T00:15:43;3.22;;;2.85;;
46491;SDS011;32206;51.446;6.792;2023-07-20T00:18:09;3.22;;;2.92;;
46491;SDS011;32206;51.446;6.792;2023-07-20T00:20:35;3.65;;;2.28;;
46491;SDS011;32206;51.446;6.792;2023-07-20T00:23:00;3.15;;;2.03;;
46491;SDS011;32206;51.446;6.792;2023-07-20T00:25:26;3.47;;;2.88;;
46491;SDS011;32206;51.446;6.792;2023-07-20T00:27:52;4.35;;;2.72;;
46491;SDS011;32206;51.446;6.792;2023-07-20T00:30:18;3.92;;;2.58;;
46491;SDS011;32206;51.446;6.792;2023-07-20T00:32:44;3.13;;;2.50;;
46491;SDS011;32206;51.446;6.792;2023-07-20T00:35:10;4.30;;;2.58;;
46491;SDS011;32206;51.446;6.792;2023-07-20T00:37:36;4.13;;;2.75;;
46491;SDS011;32206;51.446;6.792;2023-07-20T00:40:02;5.97;;;2.65;;
46491;SDS011;32206;51.446;6.792;2023-07-20T00:42:32;5.43;;;2.50;;
46491;SDS011;32206;51.446;6.792;2023-07-20T00:44:58;3.00;;;2.70;;
46491;SDS011;32206;51.446;6.792;2023-07-20T00:47:24;4.90;;;2.95;;
46491;SDS011;32206;51.446;6.792;2023-07-20T00:49:50;7.47;;;2.50;;
46491;SDS011;32206;51.446;6.792;2023-07-20T00:52:17;3.17;;;2.63;;
46491;SDS011;32206;51.446;6.792;2023-07-20T00:54:45;3.67;;;2.55;;
46491;SDS011;32206;51.446;6.792;2023-07-20T00:57:12;4.80;;;2.78;;
46491;SDS011;32206;51.446;6.792;2023-07-20T00:59:40;4.25;;;2.75;;
46491;SDS011;32206;51.446;6.792;2023-07-20T01:02:06;8.13;;;3.00;;
46491;SDS011;32206;51.446;6.792;2023-07-20T01:04:32;3.47;;;2.85;;
46491;SDS011;32206;51.446;6.792;2023-07-20T01:15:28;5.82;;;4.22;;
46491;SDS011;32206;51.446;6.792;2023-07-20T01:17:54;5.35;;;2.92;;
46491;SDS011;32206;51.446;6.792;2023-07-20T01:29:36;4.55;;;2.78;;
46491;SDS011;32206;51.446;6.792;2023-07-20T01:32:24;9.10;;;3.72;;
46491;SDS011;32206;51.446;6.792;2023-07-20T01:34:51;6.45;;;2.60;;
46491;SDS011;32206;51.446;6.792;2023-07-20T01:37:19;5.07;;;3.47;;
46491;SDS011;32206;51.446;6.792;2023-07-20T01:39:50;5.63;;;2.80;;
46491;SDS011;32206;51.446;6.792;2023-07-20T01:42:20;4.32;;;3.42;;
46491;SDS011;32206;51.446;6.792;2023-07-20T01:44:50;6.60;;;3.55;;
46491;SDS011;32206;51.446;6.792;2023-07-20T01:47:17;3.88;;;2.88;;
46491;SDS011;32206;51.446;6.792;2023-07-20T01:49:43;4.05;;;3.42;;
46491;SDS011;32206;51.446;6.792;2023-07-20T01:52:09;4.80;;;3.75;;
46491;SDS011;32206;51.446;6.792;2023-07-20T01:54:34;7.72;;;3.67;;
46491;SDS011;32206;51.446;6.792;2023-07-20T01:57:00;7.18;;;3.40;;
46491;SDS011;32206;51.446;6.792;2023-07-20T01:59:25;5.25;;;3.53;;
46491;SDS011;32206;51.446;6.792;2023-07-20T02:01:52;5.20;;;3.42;;
46491;SDS011;32206;51.446;6.792;2023-07-20T02:04:17;7.88;;;4.25;;
46491;SDS011;32206;51.446;6.792;2023-07-20T02:06:43;3.97;;;3.53;;
46491;SDS011;32206;51.446;6.792;2023-07-20T02:09:08;6.45;;;3.88;;
46491;SDS011;32206;51.446;6.792;2023-07-20T02:24:32;6.68;;;4.28;;
46491;SDS011;32206;51.446;6.792;2023-07-20T02:30:19;6.60;;;5.18;;
46491;SDS011;32206;51.446;6.792;2023-07-20T02:32:45;10.30;;;5.20;;
46491;SDS011;32206;51.446;6.792;2023-07-20T02:35:13;8.38;;;5.20;;
46491;SDS011;32206;51.446;6.792;2023-07-20T02:37:39;9.25;;;6.30;;
46491;SDS011;32206;51.446;6.792;2023-07-20T02:40:05;11.13;;;5.70;;
46491;SDS011;32206;51.446;6.792;2023-07-20T02:42:32;8.32;;;6.65;;
46491;SDS011;32206;51.446;6.792;2023-07-20T02:44:58;12.95;;;7.45;;
46491;SDS011;32206;51.446;6.792;2023-07-20T02:47:23;7.82;;;6.40;;
46491;SDS011;32206;51.446;6.792;2023-07-20T02:49:50;8.23;;;6.35;;
46491;SDS011;32206;51.446;6.792;2023-07-20T02:52:16;11.93;;;7.68;;
46491;SDS011;32206;51.446;6.792;2023-07-20T02:54:41;8.65;;;7.05;;
46491;SDS011;32206;51.446;6.792;2023-07-20T02:57:07;12.35;;;6.63;;
46491;SDS011;32206;51.446;6.792;2023-07-20T02:59:33;8.35;;;7.28;;
46491;SDS011;32206;51.446;6.792;2023-07-20T03:01:58;13.25;;;8.00;;
46491;SDS011;32206;51.446;6.792;2023-07-20T03:04:27;12.25;;;8.77;;
46491;SDS011;32206;51.446;6.792;2023-07-20T03:06:52;15.18;;;8.45;;
46491;SDS011;32206;51.446;6.792;2023-07-20T03:09:18;16.90;;;8.63;;
46491;SDS011;32206;51.446;6.792;2023-07-20T03:11:44;9.30;;;7.82;;
46491;SDS011;32206;51.446;6.792;2023-07-20T03:14:10;10.35;;;7.45;;
46491;SDS011;32206;51.446;6.792;2023-07-20T03:16:35;13.55;;;8.18;;
46491;SDS011;32206;51.446;6.792;2023-07-20T03:19:01;9.77;;;7.38;;
46491;SDS011;32206;51.446;6.792;2023-07-20T03:21:27;13.45;;;6.78;;
46491;SDS011;32206;51.446;6.792;2023-07-20T03:23:53;13.82;;;7.18;;
46491;SDS011;32206;51.446;6.792;2023-07-20T03:26:19;11.60;;;7.15;;
46491;SDS011;32206;51.446;6.792;2023-07-20T03:28:45;7.72;;;6.78;;
46491;SDS011;32206;51.446;6.792;2023-07-20T03:31:10;8.45;;;6.72;;
46491;SDS011;32206;51.446;6.792;2023-07-20T03:33:36;8.55;;;6.90;;
46491;SDS011;32206;51.446;6.792;2023-07-20T03:36:02;10.10;;;7.75;;
46491;SDS011;32206;51.446;6.792;2023-07-20T03:38:46;10.50;;;6.72;;
46491;SDS011;32206;51.446;6.792;2023-07-20T03:41:12;9.70;;;8.00;;
46491;SDS011;32206;51.446;6.792;2023-07-20T03:43:37;13.98;;;8.20;;
46491;SDS011;32206;51.446;6.792;2023-07-20T03:46:03;15.13;;;7.80;;
46491;SDS011;32206;51.446;6.792;2023-07-20T03:48:31;9.55;;;7.95;;
46491;SDS011;32206;51.446;6.792;2023-07-20T03:50:57;14.05;;;8.70;;
46491;SDS011;32206;51.446;6.792;2023-07-20T03:53:23;17.52;;;10.15;;
46491;SDS011;32206;51.446;6.792;2023-07-20T03:55:49;16.95;;;10.90;;
46491;SDS011;32206;51.446;6.792;2023-07-20T03:58:17;13.75;;;9.98;;
46491;SDS011;32206;51.446;6.792;2023-07-20T04:00:44;16.60;;;11.13;;
46491;SDS011;32206;51.446;6.792;2023-07-20T04:03:11;16.60;;;10.85;;
46491;SDS011;32206;51.446;6.792;2023-07-20T04:05:37;21.38;;;12.00;;
46491;SDS011;32206;51.446;6.792;2023-07-20T04:08:03;16.85;;;12.25;;
46491;SDS011;32206;51.446;6.792;2023-07-20T04:10:29;22.13;;;14.13;;
46491;SDS011;32206;51.446;6.792;2023-07-20T04:12:55;21.48;;;14.05;;
46491;SDS011;32206;51.446;6.792;2023-07-20T04:15:20;18.00;;;13.32;;
46491;SDS011;32206;51.446;6.792;2023-07-20T04:17:46;15.50;;;12.90;;
46491;SDS011;32206;51.446;6.792;2023-07-20T04:20:12;17.83;;;14.20;;
46491;SDS011;32206;51.446;6.792;2023-07-20T04:22:38;19.08;;;14.43;;
46491;SDS011;32206;51.446;6.792;2023-07-20T04:25:03;19.67;;;14.45;;
46491;SDS011;32206;51.446;6.792;2023-07-20T04:27:29;20.23;;;14.52;;
46491;SDS011;32206;51.446;6.792;2023-07-20T04:29:55;18.65;;;15.60;;
46491;SDS011;32206;51.446;6.792;2023-07-20T04:32:24;20.05;;;14.88;;
46491;SDS011;32206;51.446;6.792;2023-07-20T04:34:50;22.83;;;15.43;;
46491;SDS011;32206;51.446;6.792;2023-07-20T04:37:16;20.52;;;13.90;;
46491;SDS011;32206;51.446;6.792;2023-07-20T04:39:41;19.05;;;13.73;;
46491;SDS011;32206;51.446;6.792;2023-07-20T04:42:07;20.42;;;13.82;;
46491;SDS011;32206;51.446;6.792;2023-07-20T04:44:33;14.27;;;12.77;;
46491;SDS011;32206;51.446;6.792;2023-07-20T04:46:59;18.63;;;15.18;;
46491;SDS011;32206;51.446;6.792;2023-07-20T04:49:24;20.25;;;14.73;;
46491;SDS011;32206;51.446;6.792;2023-07-20T04:51:50;15.82;;;13.82;;
46491;SDS011;32206;51.446;6.792;2023-07-20T04:54:16;19.65;;;14.38;;
46491;SDS011;32206;51.446;6.792;2023-07-20T04:56:43;23.33;;;13.55;;
46491;SDS011;32206;51.446;6.792;2023-07-20T04:59:09;17.42;;;13.18;;
46491;SDS011;32206;51.446;6.792;2023-07-20T05:01:34;22.98;;;13.15;;
46491;SDS011;32206;51.446;6.792;2023-07-20T05:04:00;18.45;;;12.23;;
46491;SDS011;32206;51.446;6.792;2023-07-20T05:06:26;13.23;;;10.85;;
46491;SDS011;32206;51.446;6.792;2023-07-20T05:08:52;16.83;;;10.50;;
46491;SDS011;32206;51.446;6.792;2023-07-20T05:14:39;8.50;;;7.70;;
46491;SDS011;32206;51.446;6.792;2023-07-20T05:17:06;7.82;;;6.88;;
46491;SDS011;32206;51.446;6.792;2023-07-20T05:19:32;12.05;;;6.35;;
46491;SDS011;32206;51.446;6.792;2023-07-20T05:21:58;12.30;;;6.25;;
46491;SDS011;32206;51.446;6.792;2023-07-20T05:24:23;9.20;;;6.07;;
46491;SDS011;32206;51.446;6.792;2023-07-20T05:26:49;6.85;;;5.80;;
46491;SDS011;32206;51.446;6.792;2023-07-20T05:29:14;10.57;;;6.22;;
46491;SDS011;32206;51.446;6.792;2023-07-20T05:31:40;9.85;;;6.32;;
46491;SDS011;32206;51.446;6.792;2023-07-20T05:34:06;6.28;;;5.18;;
46491;SDS011;32206;51.446;6.792;2023-07-20T05:36:31;6.22;;;5.10;;
46491;SDS011;32206;51.446;6.792;2023-07-20T05:38:57;4.82;;;4.43;;
46491;SDS011;32206;51.446;6.792;2023-07-20T05:41:23;5.75;;;4.72;;
46491;SDS011;32206;51.446;6.792;2023-07-20T05:43:48;5.88;;;4.55;;
46491;SDS011;32206;51.446;6.792;2023-07-20T05:46:14;7.45;;;4.88;;
46491;SDS011;32206;51.446;6.792;2023-07-20T05:48:40;6.85;;;4.53;;
46491;SDS011;32206;51.446;6.792;2023-07-20T05:51:05;5.63;;;4.22;;
46491;SDS011;32206;51.446;6.792;2023-07-20T05:53:31;5.72;;;3.65;;
46491;SDS011;32206;51.446;6.792;2023-07-20T05:55:57;6.95;;;3.95;;
46491;SDS011;32206;51.446;6.792;2023-07-20T05:58:22;5.95;;;4.18;;
46491;SDS011;32206;51.446;6.792;2023-07-20T06:00:49;6.70;;;4.10;;
46491;SDS011;32206;51.446;6.792;2023-07-20T06:03:15;5.53;;;4.72;;
46491;SDS011;32206;51.446;6.792;2023-07-20T06:05:43;4.03;;;3.72;;
46491;SDS011;32206;51.446;6.792;2023-07-20T06:08:10;3.70;;;3.28;;
46491;SDS011;32206;51.446;6.792;2023-07-20T06:10:36;6.10;;;4.13;;
46491;SDS011;32206;51.446;6.792;2023-07-20T06:16:23;3.80;;;3.47;;
46491;SDS011;32206;51.446;6.792;2023-07-20T06:25:34;4.72;;;3.90;;
46491;SDS011;32206;51.446;6.792;2023-07-20T06:27:59;7.47;;;6.75;;
46491;SDS011;32206;51.446;6.792;2023-07-20T06:30:25;7.82;;;5.85;;
46491;SDS011;32206;51.446;6.792;2023-07-20T06:32:51;12.93;;;9.85;;
46491;SDS011;32206;51.446;6.792;2023-07-20T06:35:16;15.35;;;12.55;;
46491;SDS011;32206;51.446;6.792;2023-07-20T06:44:27;19.73;;;11.23;;
46491;SDS011;32206;51.446;6.792;2023-07-20T06:46:52;9.30;;;7.72;;
46491;SDS011;32206;51.446;6.792;2023-07-20T06:49:24;8.25;;;5.65;;
46491;SDS011;32206;51.446;6.792;2023-07-20T06:51:53;4.70;;;3.67;;
46491;SDS011;32206;51.446;6.792;2023-07-20T06:54:19;4.43;;;2.85;;
46491;SDS011;32206;51.446;6.792;2023-07-20T06:56:44;2.72;;;2.45;;
46491;SDS011;32206;51.446;6.792;2023-07-20T06:59:10;9.95;;;3.95;;
46491;SDS011;32206;51.446;6.792;2023-07-20T07:01:36;6.80;;;6.20;;
46491;SDS011;32206;51.446;6.792;2023-07-20T07:04:01;5.18;;;4.68;;
46491;SDS011;32206;51.446;6.792;2023-07-20T07:06:28;3.83;;;2.58;;
46491;SDS011;32206;51.446;6.792;2023-07-20T07:08:53;2.47;;;2.28;;
46491;SDS011;32206;51.446;6.792;2023-07-20T07:18:03;5.70;;;5.20;;
46491;SDS011;32206;51.446;6.792;2023-07-20T07:20:29;6.68;;;6.07;;
46491;SDS011;32206;51.446;6.792;2023-07-20T07:22:55;8.23;;;6.90;;
46491;SDS011;32206;51.446;6.792;2023-07-20T07:25:22;4.65;;;4.25;;
46491;SDS011;32206;51.446;6.792;2023-07-20T07:27:47;5.20;;;3.50;;
46491;SDS011;32206;51.446;6.792;2023-07-20T07:30:13;7.38;;;3.05;;
46491;SDS011;32206;51.446;6.792;2023-07-20T07:32:39;4.55;;;3.40;;
46491;SDS011;32206;51.446;6.792;2023-07-20T07:35:05;8.65;;;4.95;;
46491;SDS011;32206;51.446;6.792;2023-07-20T07:37:30;9.93;;;5.60;;
46491;SDS011;32206;51.446;6.792;2023-07-20T07:39:56;6.03;;;4.28;;
46491;SDS011;32206;51.446;6.792;2023-07-20T07:42:22;2.97;;;2.47;;
46491;SDS011;32206;51.446;6.792;2023-07-20T07:44:48;3.10;;;2.33;;
46491;SDS011;32206;51.446;6.792;2023-07-20T07:47:14;3.13;;;2.17;;
46491;SDS011;32206;51.446;6.792;2023-07-20T07:49:39;3.00;;;2.65;;
46491;SDS011;32206;51.446;6.792;2023-07-20T07:52:05;4.65;;;3.47;;
46491;SDS011;32206;51.446;6.792;2023-07-20T07:54:31;9.60;;;3.45;;
46491;SDS011;32206;51.446;6.792;2023-07-20T07:56:56;9.68;;;5.35;;
46491;SDS011;32206;51.446;6.792;2023-07-20T07:59:22;14.02;;;7.13;;
46491;SDS011;32206;51.446;6.792;2023-07-20T08:08:32;9.80;;;8.00;;
46491;SDS011;32206;51.446;6.792;2023-07-20T08:10:58;5.20;;;4.72;;
46491;SDS011;32206;51.446;6.792;2023-07-20T08:16:47;5.43;;;4.10;;
46491;SDS011;32206;51.446;6.792;2023-07-20T08:19:12;6.57;;;3.40;;
46491;SDS011;32206;51.446;6.792;2023-07-20T08:21:38;5.38;;;3.45;;
46491;SDS011;32206;51.446;6.792;2023-07-20T08:24:04;6.03;;;4.50;;
46491;SDS011;32206;51.446;6.792;2023-07-20T08:26:30;3.72;;;2.60;;
46491;SDS011;32206;51.446;6.792;2023-07-20T08:28:57;4.68;;;2.25;;
46491;SDS011;32206;51.446;6.792;2023-07-20T08:31:23;3.42;;;1.50;;
46491;SDS011;32206;51.446;6.792;2023-07-20T08:33:48;1.40;;;0.98;;
46491;SDS011;32206;51.446;6.792;2023-07-20T08:36:14;1.85;;;1.10;;
46491;SDS011;32206;51.446;6.792;2023-07-20T08:38:39;2.08;;;1.88;;
46491;SDS011;32206;51.446;6.792;2023-07-20T08:41:05;3.88;;;3.08;;
46491;SDS011;32206;51.446;6.792;2023-07-20T08:43:31;6.07;;;3.13;;
46491;SDS011;32206;51.446;6.792;2023-07-20T08:45:58;3.03;;;2.72;;
46491;SDS011;32206;51.446;6.792;2023-07-20T08:48:25;2.83;;;2.63;;
46491;SDS011;32206;51.446;6.792;2023-07-20T08:50:52;2.83;;;1.40;;
46491;SDS011;32206;51.446;6.792;2023-07-20T08:53:22;3.38;;;1.95;;
46491;SDS011;32206;51.446;6.792;2023-07-20T08:55:48;3.78;;;3.20;;
46491;SDS011;32206;51.446;6.792;2023-07-20T08:58:16;2.72;;;2.10;;
46491;SDS011;32206;51.446;6.792;2023-07-20T09:00:43;6.70;;;2.88;;
46491;SDS011;32206;51.446;6.792;2023-07-20T09:03:09;4.00;;;2.83;;
46491;SDS011;32206;51.446;6.792;2023-07-20T09:05:36;4.18;;;2.15;;
46491;SDS011;32206;51.446;6.792;2023-07-20T09:08:02;2.83;;;1.83;;
46491;SDS011;32206;51.446;6.792;2023-07-20T09:10:28;4.18;;;1.98;;
46491;SDS011;32206;51.446;6.792;2023-07-20T09:16:16;2.42;;;1.40;;
46491;SDS011;32206;51.446;6.792;2023-07-20T09:19:00;2.67;;;1.30;;
46491;SDS011;32206;51.446;6.792;2023-07-20T09:21:29;2.85;;;0.90;;
46491;SDS011;32206;51.446;6.792;2023-07-20T09:23:58;4.47;;;1.17;;
46491;SDS011;32206;51.446;6.792;2023-07-20T09:26:24;2.80;;;0.90;;
46491;SDS011;32206;51.446;6.792;2023-07-20T09:28:51;1.15;;;1.05;;
46491;SDS011;32206;51.446;6.792;2023-07-20T09:31:18;4.60;;;0.90;;
46491;SDS011;32206;51.446;6.792;2023-07-20T09:33:45;3.33;;;0.82;;
46491;SDS011;32206;51.446;6.792;2023-07-20T09:36:11;2.78;;;0.90;;
46491;SDS011;32206;51.446;6.792;2023-07-20T09:38:38;3.38;;;0.90;;
46491;SDS011;32206;51.446;6.792;2023-07-20T09:41:05;3.30;;;0.70;;
46491;SDS011;32206;51.446;6.792;2023-07-20T09:43:34;1.65;;;0.95;;
46491;SDS011;32206;51.446;6.792;2023-07-20T09:45:59;2.50;;;0.80;;
46491;SDS011;32206;51.446;6.792;2023-07-20T09:48:25;2.88;;;0.80;;
46491;SDS011;32206;51.446;6.792;2023-07-20T09:50:52;1.45;;;0.73;;
46491;SDS011;32206;51.446;6.792;2023-07-20T09:53:19;0.85;;;0.50;;
46491;SDS011;32206;51.446;6.792;2023-07-20T09:55:45;0.90;;;0.60;;
46491;SDS011;32206;51.446;6.792;2023-07-20T09:58:12;0.73;;;0.70;;
46491;SDS011;32206;51.446;6.792;2023-07-20T10:00:39;1.20;;;0.60;;
46491;SDS011;32206;51.446;6.792;2023-07-20T10:03:08;0.60;;;0.47;;
46491;SDS011;32206;51.446;6.792;2023-07-20T10:05:42;1.90;;;1.33;;
46491;SDS011;32206;51.446;6.792;2023-07-20T10:08:12;2.78;;;1.10;;
46491;SDS011;32206;51.446;6.792;2023-07-20T10:10:41;2.47;;;0.88;;
46491;SDS011;32206;51.446;6.792;2023-07-20T10:13:14;3.40;;;0.80;;
46491;SDS011;32206;51.446;6.792;2023-07-20T10:15:43;5.88;;;1.40;;
46491;SDS011;32206;51.446;6.792;2023-07-20T10:18:46;2.03;;;0.95;;
46491;SDS011;32206;51.446;6.792;2023-07-20T10:21:19;1.98;;;0.82;;
46491;SDS011;32206;51.446;6.792;2023-07-20T10:23:47;2.88;;;0.70;;
46491;SDS011;32206;51.446;6.792;2023-07-20T10:26:14;2.42;;;0.93;;
46491;SDS011;32206;51.446;6.792;2023-07-20T10:28:39;1.55;;;0.95;;
46491;SDS011;32206;51.446;6.792;2023-07-20T10:31:07;4.30;;;0.95;;
46491;SDS011;32206;51.446;6.792;2023-07-20T10:33:34;2.15;;;0.60;;
46491;SDS011;32206;51.446;6.792;2023-07-20T10:36:01;2.50;;;1.00;;
46491;SDS011;32206;51.446;6.792;2023-07-20T10:41:27;3.13;;;0.88;;
46491;SDS011;32206;51.446;6.792;2023-07-20T10:44:00;1.17;;;0.82;;
46491;SDS011;32206;51.446;6.792;2023-07-20T10:49:07;1.30;;;0.85;;
46491;SDS011;32206;51.446;6.792;2023-07-20T10:56:44;1.20;;;0.90;;
46491;SDS011;32206;51.446;6.792;2023-07-20T11:01:50;2.00;;;0.50;;
46491;SDS011;32206;51.446;6.792;2023-07-20T11:04:21;2.83;;;0.75;;
46491;SDS011;32206;51.446;6.792;2023-07-20T11:07:09;0.75;;;0.40;;
46491;SDS011;32206;51.446;6.792;2023-07-20T11:09:39;0.50;;;0.43;;
46491;SDS011;32206;51.446;6.792;2023-07-20T11:12:09;1.13;;;0.38;;
46491;SDS011;32206;51.446;6.792;2023-07-20T11:14:40;0.30;;;0.30;;
46491;SDS011;32206;51.446;6.792;2023-07-20T11:17:10;0.40;;;0.30;;
46491;SDS011;32206;51.446;6.792;2023-07-20T11:19:38;1.33;;;0.43;;
46491;SDS011;32206;51.446;6.792;2023-07-20T11:22:05;1.73;;;0.50;;
46491;SDS011;32206;51.446;6.792;2023-07-20T11:24:37;2.58;;;1.10;;
46491;SDS011;32206;51.446;6.792;2023-07-20T11:27:04;2.03;;;0.65;;
46491;SDS011;32206;51.446;6.792;2023-07-20T11:29:30;2.78;;;0.75;;
46491;SDS011;32206;51.446;6.792;2023-07-20T11:31:56;1.63;;;0.60;;
46491;SDS011;32206;51.446;6.792;2023-07-20T11:34:23;4.43;;;0.70;;
46491;SDS011;32206;51.446;6.792;2023-07-20T11:36:50;2.60;;;0.45;;
46491;SDS011;32206;51.446;6.792;2023-07-20T11:39:17;3.60;;;0.28;;
46491;SDS011;32206;51.446;6.792;2023-07-20T11:41:51;0.60;;;0.57;;
46491;SDS011;32206;51.446;6.792;2023-07-20T11:44:18;0.50;;;0.40;;
46491;SDS011;32206;51.446;6.792;2023-07-20T11:46:46;2.15;;;0.50;;
46491;SDS011;32206;51.446;6.792;2023-07-20T11:49:14;1.05;;;0.43;;
46491;SDS011;32206;51.446;6.792;2023-07-20T11:51:40;2.42;;;0.82;;
46491;SDS011;32206;51.446;6.792;2023-07-20T11:54:07;2.53;;;0.68;;
46491;SDS011;32206;51.446;6.792;2023-07-20T11:56:34;0.40;;;0.40;;
46491;SDS011;32206;51.446;6.792;2023-07-20T11:59:00;1.80;;;0.40;;
46491;SDS011;32206;51.446;6.792;2023-07-20T12:01:29;0.82;;;0.45;;
46491;SDS011;32206;51.446;6.792;2023-07-20T12:04:00;0.75;;;0.20;;
46491;SDS011;32206;51.446;6.792;2023-07-20T12:06:29;0.65;;;0.40;;
46491;SDS011;32206;51.446;6.792;2023-07-20T12:08:58;0.50;;;0.30;;
46491;SDS011;32206;51.446;6.792;2023-07-20T12:11:38;2.25;;;0.45;;
46491;SDS011;32206;51.446;6.792;2023-07-20T12:14:04;0.90;;;0.40;;
46491;SDS011;32206;51.446;6.792;2023-07-20T12:16:32;4.40;;;0.98;;
46491;SDS011;32206;51.446;6.792;2023-07-20T12:19:09;0.82;;;0.50;;
46491;SDS011;32206;51.446;6.792;2023-07-20T12:21:38;2.20;;;0.70;;
46491;SDS011;32206;51.446;6.792;2023-07-20T12:24:07;0.70;;;0.40;;
46491;SDS011;32206;51.446;6.792;2023-07-20T12:26:35;0.70;;;0.40;;
46491;SDS011;32206;51.446;6.792;2023-07-20T12:29:01;1.90;;;0.60;;
46491;SDS011;32206;51.446;6.792;2023-07-20T12:31:28;2.17;;;0.47;;
46491;SDS011;32206;51.446;6.792;2023-07-20T12:33:56;0.50;;;0.20;;
46491;SDS011;32206;51.446;6.792;2023-07-20T12:36:23;0.63;;;0.40;;
46491;SDS011;32206;51.446;6.792;2023-07-20T12:38:49;0.30;;;0.20;;
46491;SDS011;32206;51.446;6.792;2023-07-20T12:41:15;1.27;;;0.40;;
46491;SDS011;32206;51.446;6.792;2023-07-20T12:43:41;0.45;;;0.30;;
46491;SDS011;32206;51.446;6.792;2023-07-20T12:46:08;0.30;;;0.30;;
46491;SDS011;32206;51.446;6.792;2023-07-20T12:48:35;0.22;;;0.20;;
46491;SDS011;32206;51.446;6.792;2023-07-20T12:51:06;0.35;;;0.30;;
46491;SDS011;32206;51.446;6.792;2023-07-20T12:53:32;0.68;;;0.30;;
46491;SDS011;32206;51.446;6.792;2023-07-20T12:55:59;0.40;;;0.40;;
46491;SDS011;32206;51.446;6.792;2023-07-20T12:58:25;0.75;;;0.20;;
46491;SDS011;32206;51.446;6.792;2023-07-20T13:00:51;0.93;;;0.20;;
46491;SDS011;32206;51.446;6.792;2023-07-20T13:06:39;0.77;;;0.40;;
46491;SDS011;32206;51.446;6.792;2023-07-20T13:09:04;2.55;;;0.50;;
46491;SDS011;32206;51.446;6.792;2023-07-20T13:11:30;2.08;;;0.50;;
46491;SDS011;32206;51.446;6.792;2023-07-20T13:13:55;0.55;;;0.40;;
46491;SDS011;32206;51.446;6.792;2023-07-20T13:23:06;1.05;;;0.30;;
46491;SDS011;32206;51.446;6.792;2023-07-20T13:25:32;1.98;;;0.40;;
46491;SDS011;32206;51.446;6.792;2023-07-20T13:27:58;0.35;;;0.20;;
46491;SDS011;32206;51.446;6.792;2023-07-20T13:30:23;0.63;;;0.40;;
46491;SDS011;32206;51.446;6.792;2023-07-20T13:32:49;0.73;;;0.30;;
46491;SDS011;32206;51.446;6.792;2023-07-20T13:35:14;2.67;;;0.40;;
46491;SDS011;32206;51.446;6.792;2023-07-20T13:41:02;2.92;;;0.40;;
46491;SDS011;32206;51.446;6.792;2023-07-20T13:43:28;2.88;;;0.77;;
46491;SDS011;32206;51.446;6.792;2023-07-20T13:45:53;0.43;;;0.30;;
46491;SDS011;32206;51.446;6.792;2023-07-20T13:48:19;3.10;;;0.77;;
46491;SDS011;32206;51.446;6.792;2023-07-20T13:50:48;1.65;;;0.70;;
46491;SDS011;32206;51.446;6.792;2023-07-20T13:53:14;3.17;;;0.57;;
46491;SDS011;32206;51.446;6.792;2023-07-20T13:55:41;0.80;;;0.63;;
46491;SDS011;32206;51.446;6.792;2023-07-20T13:58:07;2.95;;;0.60;;
46491;SDS011;32206;51.446;6.792;2023-07-20T14:00:35;3.28;;;0.73;;
46491;SDS011;32206;51.446;6.792;2023-07-20T14:03:00;1.75;;;0.55;;
46491;SDS011;32206;51.446;6.792;2023-07-20T14:05:26;0.82;;;0.50;;
46491;SDS011;32206;51.446;6.792;2023-07-20T14:14:47;0.95;;;0.50;;
46491;SDS011;32206;51.446;6.792;2023-07-20T14:17:12;0.40;;;0.32;;
46491;SDS011;32206;51.446;6.792;2023-07-20T14:19:38;0.82;;;0.63;;
46491;SDS011;32206;51.446;6.792;2023-07-20T14:22:04;4.60;;;0.75;;
46491;SDS011;32206;51.446;6.792;2023-07-20T14:24:30;1.35;;;0.30;;
46491;SDS011;32206;51.446;6.792;2023-07-20T14:26:56;2.67;;;0.50;;
46491;SDS011;32206;51.446;6.792;2023-07-20T14:29:21;0.90;;;0.38;;
46491;SDS011;32206;51.446;6.792;2023-07-20T14:31:47;0.70;;;0.50;;
46491;SDS011;32206;51.446;6.792;2023-07-20T14:41:00;2.65;;;0.40;;
46491;SDS011;32206;51.446;6.792;2023-07-20T14:43:25;0.65;;;0.40;;
46491;SDS011;32206;51.446;6.792;2023-07-20T14:45:51;1.65;;;0.40;;
46491;SDS011;32206;51.446;6.792;2023-07-20T14:48:17;0.80;;;0.52;;
46491;SDS011;32206;51.446;6.792;2023-07-20T14:50:42;0.60;;;0.40;;
46491;SDS011;32206;51.446;6.792;2023-07-20T14:53:10;8.07;;;0.70;;
46491;SDS011;32206;51.446;6.792;2023-07-20T14:55:37;1.20;;;0.68;;
46491;SDS011;32206;51.446;6.792;2023-07-20T14:58:02;2.35;;;0.50;;
46491;SDS011;32206;51.446;6.792;2023-07-20T15:00:28;2.70;;;0.70;;
46491;SDS011;32206;51.446;6.792;2023-07-20T15:06:17;2.20;;;0.60;;
46491;SDS011;32206;51.446;6.792;2023-07-20T15:08:42;0.98;;;0.50;;
46491;SDS011;32206;51.446;6.792;2023-07-20T15:17:53;0.68;;;0.20;;
46491;SDS011;32206;51.446;6.792;2023-07-20T15:20:19;0.55;;;0.40;;
46491;SDS011;32206;51.446;6.792;2023-07-20T15:22:45;0.30;;;0.30;;
46491;SDS011;32206;51.446;6.792;2023-07-20T15:25:11;1.15;;;0.63;;
46491;SDS011;32206;51.446;6.792;2023-07-20T15:30:49;2.15;;;0.70;;
46491;SDS011;32206;51.446;6.792;2023-07-20T15:33:16;3.67;;;0.90;;
46491;SDS011;32206;51.446;6.792;2023-07-20T15:35:42;1.40;;;0.70;;
46491;SDS011;32206;51.446;6.792;2023-07-20T15:38:09;3.50;;;0.80;;
46491;SDS011;32206;51.446;6.792;2023-07-20T15:40:34;0.70;;;0.60;;
46491;SDS011;32206;51.446;6.792;2023-07-20T15:43:00;3.35;;;0.80;;
46491;SDS011;32206;51.446;6.792;2023-07-20T15:45:27;1.80;;;0.57;;
46491;SDS011;32206;51.446;6.792;2023-07-20T15:47:53;0.95;;;0.57;;
46491;SDS011;32206;51.446;6.792;2023-07-20T15:50:19;0.95;;;0.63;;
46491;SDS011;32206;51.446;6.792;2023-07-20T15:52:44;3.53;;;0.40;;
46491;SDS011;32206;51.446;6.792;2023-07-20T15:55:10;0.70;;;0.52;;
46491;SDS011;32206;51.446;6.792;2023-07-20T15:57:36;2.03;;;0.73;;
46491;SDS011;32206;51.446;6.792;2023-07-20T16:00:02;4.20;;;0.43;;
46491;SDS011;32206;51.446;6.792;2023-07-20T16:02:28;0.38;;;0.38;;
46491;SDS011;32206;51.446;6.792;2023-07-20T16:04:54;0.55;;;0.30;;
46491;SDS011;32206;51.446;6.792;2023-07-20T16:10:48;1.23;;;0.50;;
46491;SDS011;32206;51.446;6.792;2023-07-20T16:13:14;0.47;;;0.40;;
46491;SDS011;32206;51.446;6.792;2023-07-20T16:15:39;1.85;;;0.40;;
46491;SDS011;32206;51.446;6.792;2023-07-20T16:18:05;5.30;;;0.50;;
46491;SDS011;32206;51.446;6.792;2023-07-20T16:20:31;1.38;;;0.52;;
46491;SDS011;32206;51.446;6.792;2023-07-20T16:22:57;1.98;;;0.52;;
46491;SDS011;32206;51.446;6.792;2023-07-20T16:28:23;0.98;;;0.50;;
46491;SDS011;32206;51.446;6.792;2023-07-20T16:30:49;2.15;;;0.50;;
46491;SDS011;32206;51.446;6.792;2023-07-20T16:33:15;1.17;;;0.43;;
46491;SDS011;32206;51.446;6.792;2023-07-20T16:35:40;0.85;;;0.32;;
46491;SDS011;32206;51.446;6.792;2023-07-20T16:38:07;1.27;;;0.68;;
46491;SDS011;32206;51.446;6.792;2023-07-20T16:40:33;3.95;;;0.70;;
46491;SDS011;32206;51.446;6.792;2023-07-20T16:43:13;3.13;;;0.80;;
46491;SDS011;32206;51.446;6.792;2023-07-20T16:45:39;3.33;;;0.52;;
46491;SDS011;32206;51.446;6.792;2023-07-20T16:48:05;2.17;;;0.68;;
46491;SDS011;32206;51.446;6.792;2023-07-20T16:50:31;1.08;;;0.77;;
46491;SDS011;32206;51.446;6.792;2023-07-20T16:56:19;2.38;;;0.90;;
46491;SDS011;32206;51.446;6.792;2023-07-20T16:58:45;2.70;;;0.80;;
46491;SDS011;32206;51.446;6.792;2023-07-20T17:01:11;1.42;;;0.80;;